sensor_id;sensor_type;location;lat;lon;timestamp;pressure;altitude;pressure_sealevel;temperature;humidity
39177;BME280;24904;52.208;21.192;2023-03-05T00:03:52;100064.42;;;-0.89;49.61
39177;BME280;24904;52.208;21.192;2023-03-05T00:08:58;100057.02;;;-0.86;49.57
39177;BME280;24904;52.208;21.192;2023-03-05T00:14:04;100056.52;;;-0.82;49.94
39177;BME280;24904;52.208;21.192;2023-03-05T00:19:10;100054.54;;;-0.85;50.35
39177;BME280;24904;52.208;21.192;2023-03-05T00:24:16;100050.71;;;-0.92;50.43
39177;BME280;24904;52.208;21.192;2023-03-05T00:29:21;100048.17;;;-0.87;50.61
39177;BME280;24904;52.208;21.192;2023-03-05T00:34:26;100047.83;;;-0.79;50.69
39177;BME280;24904;52.208;21.192;2023-03-05T00:39:32;100035.18;;;-0.76;51.05
39177;BME280;24904;52.208;21.192;2023-03-05T00:44:37;100030.52;;;-0.71;50.86
39177;BME280;24904;52.208;21.192;2023-03-05T00:49:42;100025.75;;;-0.71;50.90
39177;BME280;24904;52.208;21.192;2023-03-05T00:54:47;100020.31;;;-0.75;51.03
39177;BME280;24904;52.208;21.192;2023-03-05T00:59:52;100020.58;;;-0.71;51.07
39177;BME280;24904;52.208;21.192;2023-03-05T01:04:57;100014.98;;;-0.68;51.18
39177;BME280;24904;52.208;21.192;2023-03-05T01:10:03;100013.64;;;-0.71;51.10
39177;BME280;24904;52.208;21.192;2023-03-05T01:15:08;100005.75;;;-0.73;51.12
39177;BME280;24904;52.208;21.192;2023-03-05T01:20:16;100002.36;;;-0.81;51.45
39177;BME280;24904;52.208;21.192;2023-03-05T01:25:22;99996.98;;;-0.79;51.76
39177;BME280;24904;52.208;21.192;2023-03-05T01:36:52;99985.26;;;-0.84;52.16
39177;BME280;24904;52.208;21.192;2023-03-05T01:41:57;99980.63;;;-0.87;52.17
39177;BME280;24904;52.208;21.192;2023-03-05T01:47:02;99975.13;;;-0.91;52.40
39177;BME280;24904;52.208;21.192;2023-03-05T01:52:09;99973.68;;;-0.96;52.39
39177;BME280;24904;52.208;21.192;2023-03-05T01:57:19;99969.20;;;-0.95;52.63
39177;BME280;24904;52.208;21.192;2023-03-05T02:02:25;99961.48;;;-0.97;52.67
39177;BME280;24904;52.208;21.192;2023-03-05T02:07:31;99962.31;;;-1.00;52.69
39177;BME280;24904;52.208;21.192;2023-03-05T02:12:38;99960.26;;;-1.04;52.93
39177;BME280;24904;52.208;21.192;2023-03-05T02:17:43;99957.08;;;-1.06;53.34
39177;BME280;24904;52.208;21.192;2023-03-05T02:22:49;99958.88;;;-1.05;53.39
39177;BME280;24904;52.208;21.192;2023-03-05T02:27:57;99953.95;;;-1.02;53.65
39177;BME280;24904;52.208;21.192;2023-03-05T02:41:16;99947.52;;;-1.05;54.07
39177;BME280;24904;52.208;21.192;2023-03-05T02:46:22;99944.41;;;-1.10;53.93
39177;BME280;24904;52.208;21.192;2023-03-05T02:51:27;99939.05;;;-1.15;54.23
39177;BME280;24904;52.208;21.192;2023-03-05T02:56:32;99932.22;;;-1.16;54.39
39177;BME280;24904;52.208;21.192;2023-03-05T03:01:38;99930.05;;;-1.20;54.53
39177;BME280;24904;52.208;21.192;2023-03-05T03:06:43;99924.52;;;-1.24;54.63
39177;BME280;24904;52.208;21.192;2023-03-05T03:11:48;99927.19;;;-1.28;54.84
39177;BME280;24904;52.208;21.192;2023-03-05T03:16:53;99930.27;;;-1.31;55.25
39177;BME280;24904;52.208;21.192;2023-03-05T03:21:58;99929.52;;;-1.33;55.47
39177;BME280;24904;52.208;21.192;2023-03-05T03:27:04;99922.45;;;-1.36;55.44
39177;BME280;24904;52.208;21.192;2023-03-05T03:32:09;99918.41;;;-1.38;55.64
39177;BME280;24904;52.208;21.192;2023-03-05T03:37:14;99916.78;;;-1.40;56.00
39177;BME280;24904;52.208;21.192;2023-03-05T03:42:20;99917.55;;;-1.41;55.93
39177;BME280;24904;52.208;21.192;2023-03-05T03:47:25;99910.24;;;-1.41;55.99
39177;BME280;24904;52.208;21.192;2023-03-05T03:52:30;99903.73;;;-1.42;56.17
39177;BME280;24904;52.208;21.192;2023-03-05T03:57:35;99899.16;;;-1.44;56.09
39177;BME280;24904;52.208;21.192;2023-03-05T04:02:40;99896.34;;;-1.52;56.09
39177;BME280;24904;52.208;21.192;2023-03-05T04:07:45;99892.17;;;-1.49;56.23
39177;BME280;24904;52.208;21.192;2023-03-05T04:12:50;99885.86;;;-1.49;56.44
39177;BME280;24904;52.208;21.192;2023-03-05T04:17:55;99886.59;;;-1.52;56.52
39177;BME280;24904;52.208;21.192;2023-03-05T04:23:01;99879.02;;;-1.51;56.39
39177;BME280;24904;52.208;21.192;2023-03-05T04:28:06;99877.31;;;-1.51;56.35
39177;BME280;24904;52.208;21.192;2023-03-05T04:33:11;99873.52;;;-1.55;56.53
39177;BME280;24904;52.208;21.192;2023-03-05T04:38:16;99868.24;;;-1.55;56.45
39177;BME280;24904;52.208;21.192;2023-03-05T04:43:22;99866.05;;;-1.49;56.31
39177;BME280;24904;52.208;21.192;2023-03-05T04:48:27;99860.29;;;-1.47;56.42
39177;BME280;24904;52.208;21.192;2023-03-05T04:53:32;99857.23;;;-1.47;56.66
39177;BME280;24904;52.208;21.192;2023-03-05T04:58:37;99853.98;;;-1.45;56.77
39177;BME280;24904;52.208;21.192;2023-03-05T05:03:42;99845.44;;;-1.45;56.57
39177;BME280;24904;52.208;21.192;2023-03-05T05:08:47;99838.08;;;-1.46;56.53
39177;BME280;24904;52.208;21.192;2023-03-05T05:13:53;99832.70;;;-1.44;56.54
39177;BME280;24904;52.208;21.192;2023-03-05T05:18:58;99828.48;;;-1.42;56.63
39177;BME280;24904;52.208;21.192;2023-03-05T05:24:03;99827.39;;;-1.43;56.33
39177;BME280;24904;52.208;21.192;2023-03-05T05:29:08;99823.34;;;-1.41;56.47
39177;BME280;24904;52.208;21.192;2023-03-05T05:34:13;99827.23;;;-1.43;56.54
39177;BME280;24904;52.208;21.192;2023-03-05T05:39:19;99830.89;;;-1.45;56.51
39177;BME280;24904;52.208;21.192;2023-03-05T05:44:24;99822.06;;;-1.43;56.31
39177;BME280;24904;52.208;21.192;2023-03-05T05:49:29;99823.21;;;-1.37;56.61
39177;BME280;24904;52.208;21.192;2023-03-05T05:54:34;99822.71;;;-1.29;56.54
39177;BME280;24904;52.208;21.192;2023-03-05T05:59:39;99821.41;;;-1.24;56.45
39177;BME280;24904;52.208;21.192;2023-03-05T06:04:44;99823.67;;;-1.22;56.41
39177;BME280;24904;52.208;21.192;2023-03-05T06:09:50;99817.84;;;-1.13;56.40
39177;BME280;24904;52.208;21.192;2023-03-05T06:14:55;99813.34;;;-1.03;56.11
39177;BME280;24904;52.208;21.192;2023-03-05T06:20:01;99812.30;;;-0.89;56.15
39177;BME280;24904;52.208;21.192;2023-03-05T06:25:10;99809.00;;;-0.81;55.73
39177;BME280;24904;52.208;21.192;2023-03-05T06:30:16;99805.52;;;-0.66;56.03
39177;BME280;24904;52.208;21.192;2023-03-05T06:35:21;99795.02;;;-0.48;55.91
39177;BME280;24904;52.208;21.192;2023-03-05T06:40:26;99786.22;;;-0.30;55.85
39177;BME280;24904;52.208;21.192;2023-03-05T06:45:31;99771.66;;;-0.10;55.32
39177;BME280;24904;52.208;21.192;2023-03-05T06:50:36;99772.85;;;0.10;55.30
39177;BME280;24904;52.208;21.192;2023-03-05T06:55:41;99765.39;;;0.27;54.78
39177;BME280;24904;52.208;21.192;2023-03-05T07:00:47;99763.46;;;0.34;54.31
39177;BME280;24904;52.208;21.192;2023-03-05T07:05:52;99753.36;;;0.42;54.33
39177;BME280;24904;52.208;21.192;2023-03-05T07:10:57;99738.48;;;0.55;54.43
39177;BME280;24904;52.208;21.192;2023-03-05T07:16:06;99732.71;;;0.64;53.93
39177;BME280;24904;52.208;21.192;2023-03-05T07:29:43;99718.56;;;0.95;53.28
39177;BME280;24904;52.208;21.192;2023-03-05T07:34:46;99720.55;;;1.02;53.07
39177;BME280;24904;52.208;21.192;2023-03-05T07:39:49;99728.92;;;1.12;53.21
39177;BME280;24904;52.208;21.192;2023-03-05T07:44:52;99727.39;;;1.23;52.72
39177;BME280;24904;52.208;21.192;2023-03-05T07:49:56;99725.36;;;1.27;52.67
39177;BME280;24904;52.208;21.192;2023-03-05T07:54:59;99719.16;;;1.24;52.26
39177;BME280;24904;52.208;21.192;2023-03-05T08:00:02;99721.23;;;1.17;52.09
39177;BME280;24904;52.208;21.192;2023-03-05T08:05:14;99725.90;;;1.21;52.26
39177;BME280;24904;52.208;21.192;2023-03-05T08:10:17;99727.67;;;1.18;52.32
39177;BME280;24904;52.208;21.192;2023-03-05T08:15:20;99727.04;;;1.26;52.22
39177;BME280;24904;52.208;21.192;2023-03-05T08:20:24;99729.70;;;1.27;52.20
39177;BME280;24904;52.208;21.192;2023-03-05T08:25:27;99719.58;;;1.27;52.65
39177;BME280;24904;52.208;21.192;2023-03-05T08:30:31;99717.38;;;1.23;52.58
39177;BME280;24904;52.208;21.192;2023-03-05T08:35:34;99711.46;;;1.16;53.06
39177;BME280;24904;52.208;21.192;2023-03-05T08:40:37;99709.86;;;1.22;53.38
39177;BME280;24904;52.208;21.192;2023-03-05T08:45:40;99711.36;;;1.25;53.38
39177;BME280;24904;52.208;21.192;2023-03-05T08:50:43;99710.90;;;1.20;53.31
39177;BME280;24904;52.208;21.192;2023-03-05T08:55:54;99708.80;;;1.11;53.62
39177;BME280;24904;52.208;21.192;2023-03-05T09:00:57;99708.88;;;1.14;54.05
39177;BME280;24904;52.208;21.192;2023-03-05T09:06:01;99708.15;;;1.11;54.08
39177;BME280;24904;52.208;21.192;2023-03-05T09:11:06;99707.25;;;1.08;54.30
39177;BME280;24904;52.208;21.192;2023-03-05T09:16:16;99706.09;;;1.06;54.24
39177;BME280;24904;52.208;21.192;2023-03-05T09:21:19;99709.39;;;1.03;54.06
39177;BME280;24904;52.208;21.192;2023-03-05T09:26:22;99708.55;;;0.93;54.24
39177;BME280;24904;52.208;21.192;2023-03-05T09:31:25;99710.10;;;0.91;54.58
39177;BME280;24904;52.208;21.192;2023-03-05T09:36:30;99709.64;;;0.94;54.76
39177;BME280;24904;52.208;21.192;2023-03-05T09:41:41;99712.83;;;1.02;55.13
39177;BME280;24904;52.208;21.192;2023-03-05T09:46:53;99709.27;;;1.13;55.27
39177;BME280;24904;52.208;21.192;2023-03-05T09:52:02;99706.94;;;1.17;55.04
39177;BME280;24904;52.208;21.192;2023-03-05T09:57:14;99705.35;;;1.08;54.99
39177;BME280;24904;52.208;21.192;2023-03-05T10:02:23;99700.13;;;0.99;55.34
39177;BME280;24904;52.208;21.192;2023-03-05T10:07:30;99697.72;;;0.93;55.51
39177;BME280;24904;52.208;21.192;2023-03-05T10:12:39;99697.65;;;0.88;55.76
39177;BME280;24904;52.208;21.192;2023-03-05T10:17:48;99692.83;;;0.92;56.00
39177;BME280;24904;52.208;21.192;2023-03-05T10:23:04;99689.98;;;0.90;56.24
39177;BME280;24904;52.208;21.192;2023-03-05T10:28:16;99684.84;;;0.93;56.18
39177;BME280;24904;52.208;21.192;2023-03-05T10:33:25;99684.33;;;1.06;56.67
39177;BME280;24904;52.208;21.192;2023-03-05T10:38:48;99680.94;;;1.18;56.75
39177;BME280;24904;52.208;21.192;2023-03-05T10:44:05;99679.58;;;1.24;56.51
39177;BME280;24904;52.208;21.192;2023-03-05T10:49:16;99674.31;;;1.24;56.31
39177;BME280;24904;52.208;21.192;2023-03-05T10:54:25;99671.02;;;1.15;56.53
39177;BME280;24904;52.208;21.192;2023-03-05T10:59:31;99661.60;;;1.10;56.84
39177;BME280;24904;52.208;21.192;2023-03-05T11:04:35;99659.70;;;1.06;57.03
39177;BME280;24904;52.208;21.192;2023-03-05T11:09:38;99657.40;;;1.09;57.37
39177;BME280;24904;52.208;21.192;2023-03-05T11:14:43;99652.37;;;1.06;57.25
39177;BME280;24904;52.208;21.192;2023-03-05T11:19:47;99646.06;;;0.95;57.81
39177;BME280;24904;52.208;21.192;2023-03-05T11:25:13;99639.05;;;0.89;58.05
39177;BME280;24904;52.208;21.192;2023-03-05T11:30:21;99633.05;;;0.86;58.11
39177;BME280;24904;52.208;21.192;2023-03-05T11:35:31;99630.02;;;0.93;58.12
39177;BME280;24904;52.208;21.192;2023-03-05T11:40:35;99628.70;;;0.83;58.11
39177;BME280;24904;52.208;21.192;2023-03-05T11:45:38;99626.12;;;0.68;58.79
39177;BME280;24904;52.208;21.192;2023-03-05T11:50:46;99624.85;;;0.53;60.70
39177;BME280;24904;52.208;21.192;2023-03-05T11:55:53;99621.27;;;0.46;62.16
39177;BME280;24904;52.208;21.192;2023-03-05T12:00:58;99611.20;;;0.47;62.81
39177;BME280;24904;52.208;21.192;2023-03-05T12:06:08;99608.84;;;0.48;63.37
39177;BME280;24904;52.208;21.192;2023-03-05T12:11:17;99601.31;;;0.51;63.51
39177;BME280;24904;52.208;21.192;2023-03-05T12:16:27;99596.26;;;0.47;63.48
39177;BME280;24904;52.208;21.192;2023-03-05T12:21:35;99598.58;;;0.48;63.71
39177;BME280;24904;52.208;21.192;2023-03-05T12:27:04;99590.65;;;0.39;63.93
39177;BME280;24904;52.208;21.192;2023-03-05T12:39:47;99589.07;;;0.12;66.38
39177;BME280;24904;52.208;21.192;2023-03-05T12:45:25;99584.23;;;0.03;67.25
39177;BME280;24904;52.208;21.192;2023-03-05T12:50:46;99582.92;;;0.11;68.12
39177;BME280;24904;52.208;21.192;2023-03-05T12:55:56;99577.82;;;0.27;68.63
39177;BME280;24904;52.208;21.192;2023-03-05T13:01:05;99573.03;;;0.32;68.41
39177;BME280;24904;52.208;21.192;2023-03-05T13:06:23;99567.55;;;0.23;68.35
39177;BME280;24904;52.208;21.192;2023-03-05T13:11:27;99569.77;;;0.10;68.46
39177;BME280;24904;52.208;21.192;2023-03-05T13:16:37;99565.05;;;-0.03;68.83
39177;BME280;24904;52.208;21.192;2023-03-05T13:21:41;99561.32;;;0.02;69.08
39177;BME280;24904;52.208;21.192;2023-03-05T13:26:44;99560.74;;;0.13;69.26
39177;BME280;24904;52.208;21.192;2023-03-05T13:31:48;99555.05;;;0.24;69.10
39177;BME280;24904;52.208;21.192;2023-03-05T13:36:57;99552.05;;;0.27;69.01
39177;BME280;24904;52.208;21.192;2023-03-05T13:42:04;99548.45;;;0.32;68.96
39177;BME280;24904;52.208;21.192;2023-03-05T13:47:16;99545.67;;;0.16;68.78
39177;BME280;24904;52.208;21.192;2023-03-05T13:52:27;99538.52;;;0.07;69.04
39177;BME280;24904;52.208;21.192;2023-03-05T13:57:35;99532.80;;;0.13;69.39
39177;BME280;24904;52.208;21.192;2023-03-05T14:02:42;99528.96;;;0.27;69.25
39177;BME280;24904;52.208;21.192;2023-03-05T14:16:22;99524.20;;;0.54;68.43
39177;BME280;24904;52.208;21.192;2023-03-05T14:21:42;99512.59;;;0.51;67.93
39177;BME280;24904;52.208;21.192;2023-03-05T14:26:49;99505.79;;;0.49;67.61
39177;BME280;24904;52.208;21.192;2023-03-05T14:31:55;99499.59;;;0.40;67.82
39177;BME280;24904;52.208;21.192;2023-03-05T14:37:00;99498.79;;;0.37;67.72
39177;BME280;24904;52.208;21.192;2023-03-05T14:42:26;99499.92;;;0.30;68.04
39177;BME280;24904;52.208;21.192;2023-03-05T14:50:37;99497.14;;;0.32;67.87
39177;BME280;24904;52.208;21.192;2023-03-05T14:55:43;99491.38;;;0.31;68.34
39177;BME280;24904;52.208;21.192;2023-03-05T15:04:07;99492.52;;;0.47;68.38
39177;BME280;24904;52.208;21.192;2023-03-05T15:09:12;99488.98;;;0.35;68.29
39177;BME280;24904;52.208;21.192;2023-03-05T15:14:20;99490.02;;;0.40;68.56
39177;BME280;24904;52.208;21.192;2023-03-05T15:19:25;99490.71;;;0.40;68.30
39177;BME280;24904;52.208;21.192;2023-03-05T15:24:30;99490.37;;;0.37;68.25
39177;BME280;24904;52.208;21.192;2023-03-05T15:29:35;99491.02;;;0.42;68.43
39177;BME280;24904;52.208;21.192;2023-03-05T15:34:40;99493.47;;;0.39;68.29
39177;BME280;24904;52.208;21.192;2023-03-05T15:39:45;99499.41;;;0.31;68.20
39177;BME280;24904;52.208;21.192;2023-03-05T15:44:50;99497.81;;;0.36;68.55
39177;BME280;24904;52.208;21.192;2023-03-05T15:49:55;99502.50;;;0.37;67.98
39177;BME280;24904;52.208;21.192;2023-03-05T15:55:02;99501.89;;;0.31;67.90
39177;BME280;24904;52.208;21.192;2023-03-05T16:00:10;99507.42;;;0.29;68.04
39177;BME280;24904;52.208;21.192;2023-03-05T16:05:15;99504.97;;;0.21;68.09
39177;BME280;24904;52.208;21.192;2023-03-05T16:10:23;99499.94;;;0.21;68.21
39177;BME280;24904;52.208;21.192;2023-03-05T16:15:29;99505.64;;;0.27;68.45
39177;BME280;24904;52.208;21.192;2023-03-05T16:20:35;99509.16;;;0.32;68.31
39177;BME280;24904;52.208;21.192;2023-03-05T16:25:40;99513.73;;;0.32;68.30
39177;BME280;24904;52.208;21.192;2023-03-05T16:30:53;99515.82;;;0.32;68.19
39177;BME280;24904;52.208;21.192;2023-03-05T16:36:19;99511.92;;;0.31;68.23
39177;BME280;24904;52.208;21.192;2023-03-05T16:41:25;99515.58;;;0.42;68.58
39177;BME280;24904;52.208;21.192;2023-03-05T16:46:31;99519.62;;;0.47;68.50
39177;BME280;24904;52.208;21.192;2023-03-05T16:51:36;99524.91;;;0.53;68.59
39177;BME280;24904;52.208;21.192;2023-03-05T16:56:42;99527.98;;;0.58;68.45
39177;BME280;24904;52.208;21.192;2023-03-05T17:01:47;99529.41;;;0.64;68.57
39177;BME280;24904;52.208;21.192;2023-03-05T17:06:52;99533.86;;;0.67;68.49
39177;BME280;24904;52.208;21.192;2023-03-05T17:11:58;99534.00;;;0.65;68.46
39177;BME280;24904;52.208;21.192;2023-03-05T17:17:03;99536.91;;;0.59;68.45
39177;BME280;24904;52.208;21.192;2023-03-05T17:22:08;99535.82;;;0.62;68.56
39177;BME280;24904;52.208;21.192;2023-03-05T17:27:15;99536.19;;;0.63;68.51
39177;BME280;24904;52.208;21.192;2023-03-05T17:32:22;99530.31;;;0.63;68.50
39177;BME280;24904;52.208;21.192;2023-03-05T17:37:27;99529.38;;;0.63;68.42
39177;BME280;24904;52.208;21.192;2023-03-05T17:42:32;99532.61;;;0.56;68.38
39177;BME280;24904;52.208;21.192;2023-03-05T17:47:38;99527.39;;;0.49;68.40
39177;BME280;24904;52.208;21.192;2023-03-05T17:52:43;99531.38;;;0.48;68.57
39177;BME280;24904;52.208;21.192;2023-03-05T17:57:48;99527.15;;;0.42;68.50
39177;BME280;24904;52.208;21.192;2023-03-05T18:02:53;99528.10;;;0.37;68.48
39177;BME280;24904;52.208;21.192;2023-03-05T18:07:59;99528.30;;;0.36;68.75
39177;BME280;24904;52.208;21.192;2023-03-05T18:13:05;99529.13;;;0.33;68.81
39177;BME280;24904;52.208;21.192;2023-03-05T18:18:11;99533.25;;;0.30;68.82
39177;BME280;24904;52.208;21.192;2023-03-05T18:23:16;99535.75;;;0.23;68.82
39177;BME280;24904;52.208;21.192;2023-03-05T18:28:21;99535.23;;;0.15;68.88
39177;BME280;24904;52.208;21.192;2023-03-05T18:33:28;99539.16;;;0.10;68.98
39177;BME280;24904;52.208;21.192;2023-03-05T18:38:33;99537.46;;;0.12;69.11
39177;BME280;24904;52.208;21.192;2023-03-05T18:43:38;99538.49;;;0.11;69.19
39177;BME280;24904;52.208;21.192;2023-03-05T18:48:43;99529.73;;;0.07;69.21
39177;BME280;24904;52.208;21.192;2023-03-05T18:53:50;99534.64;;;0.04;69.42
39177;BME280;24904;52.208;21.192;2023-03-05T18:58:57;99533.45;;;-0.01;69.39
39177;BME280;24904;52.208;21.192;2023-03-05T19:04:02;99536.43;;;-0.03;69.41
39177;BME280;24904;52.208;21.192;2023-03-05T19:14:51;99536.30;;;-0.12;69.40
39177;BME280;24904;52.208;21.192;2023-03-05T19:19:57;99534.63;;;-0.17;69.38
39177;BME280;24904;52.208;21.192;2023-03-05T19:25:03;99533.02;;;-0.17;69.67
39177;BME280;24904;52.208;21.192;2023-03-05T19:30:10;99533.56;;;-0.19;69.68
39177;BME280;24904;52.208;21.192;2023-03-05T19:35:17;99531.70;;;-0.21;69.59
39177;BME280;24904;52.208;21.192;2023-03-05T19:40:22;99536.30;;;-0.24;69.48
39177;BME280;24904;52.208;21.192;2023-03-05T19:45:27;99535.55;;;-0.27;69.49
39177;BME280;24904;52.208;21.192;2023-03-05T19:50:35;99527.89;;;-0.33;69.60
39177;BME280;24904;52.208;21.192;2023-03-05T19:55:41;99538.67;;;-0.34;69.41
39177;BME280;24904;52.208;21.192;2023-03-05T20:00:46;99541.43;;;-0.40;69.17
39177;BME280;24904;52.208;21.192;2023-03-05T20:05:51;99542.20;;;-0.45;69.38
39177;BME280;24904;52.208;21.192;2023-03-05T20:10:56;99540.55;;;-0.46;69.60
39177;BME280;24904;52.208;21.192;2023-03-05T20:16:01;99540.16;;;-0.50;69.43
39177;BME280;24904;52.208;21.192;2023-03-05T20:21:07;99537.54;;;-0.55;69.37
39177;BME280;24904;52.208;21.192;2023-03-05T20:26:12;99535.88;;;-0.62;69.40
39177;BME280;24904;52.208;21.192;2023-03-05T20:31:18;99537.86;;;-0.65;69.34
39177;BME280;24904;52.208;21.192;2023-03-05T20:36:24;99539.02;;;-0.70;69.50
39177;BME280;24904;52.208;21.192;2023-03-05T20:41:30;99538.37;;;-0.72;69.71
39177;BME280;24904;52.208;21.192;2023-03-05T20:46:38;99539.66;;;-0.77;69.79
39177;BME280;24904;52.208;21.192;2023-03-05T20:52:35;99536.20;;;-0.78;69.87
39177;BME280;24904;52.208;21.192;2023-03-05T20:57:40;99538.04;;;-0.78;69.85
39177;BME280;24904;52.208;21.192;2023-03-05T21:02:46;99541.14;;;-0.82;70.00
39177;BME280;24904;52.208;21.192;2023-03-05T21:07:54;99542.66;;;-0.82;70.05
39177;BME280;24904;52.208;21.192;2023-03-05T21:12:59;99537.61;;;-0.88;69.68
39177;BME280;24904;52.208;21.192;2023-03-05T21:18:05;99536.81;;;-0.87;69.98
39177;BME280;24904;52.208;21.192;2023-03-05T21:23:10;99537.48;;;-0.88;70.00
39177;BME280;24904;52.208;21.192;2023-03-05T21:28:14;99530.45;;;-0.92;69.97
39177;BME280;24904;52.208;21.192;2023-03-05T21:33:20;99530.21;;;-0.92;69.97
39177;BME280;24904;52.208;21.192;2023-03-05T21:38:24;99528.16;;;-0.97;69.82
39177;BME280;24904;52.208;21.192;2023-03-05T21:43:31;99524.55;;;-1.04;69.81
39177;BME280;24904;52.208;21.192;2023-03-05T21:48:35;99518.27;;;-1.06;69.58
39177;BME280;24904;52.208;21.192;2023-03-05T21:53:38;99520.38;;;-1.08;69.83
39177;BME280;24904;52.208;21.192;2023-03-05T21:58:42;99516.16;;;-1.08;69.55
39177;BME280;24904;52.208;21.192;2023-03-05T22:03:45;99513.30;;;-1.14;69.71
39177;BME280;24904;52.208;21.192;2023-03-05T22:08:48;99512.49;;;-1.19;69.81
39177;BME280;24904;52.208;21.192;2023-03-05T22:13:51;99514.42;;;-1.21;69.74
39177;BME280;24904;52.208;21.192;2023-03-05T22:18:55;99513.86;;;-1.22;69.65
39177;BME280;24904;52.208;21.192;2023-03-05T22:23:58;99509.73;;;-1.23;69.83
39177;BME280;24904;52.208;21.192;2023-03-05T22:29:02;99506.36;;;-1.26;69.41
39177;BME280;24904;52.208;21.192;2023-03-05T22:34:05;99508.69;;;-1.30;69.70
39177;BME280;24904;52.208;21.192;2023-03-05T22:39:09;99511.33;;;-1.32;69.46
39177;BME280;24904;52.208;21.192;2023-03-05T22:44:12;99514.66;;;-1.35;69.58
39177;BME280;24904;52.208;21.192;2023-03-05T22:49:15;99512.05;;;-1.35;69.57
39177;BME280;24904;52.208;21.192;2023-03-05T22:54:19;99511.49;;;-1.39;69.50
39177;BME280;24904;52.208;21.192;2023-03-05T22:59:22;99513.02;;;-1.43;69.36
39177;BME280;24904;52.208;21.192;2023-03-05T23:09:53;99510.06;;;-1.52;69.71
39177;BME280;24904;52.208;21.192;2023-03-05T23:14:59;99510.82;;;-1.55;69.46
39177;BME280;24904;52.208;21.192;2023-03-05T23:20:03;99512.53;;;-1.64;69.05
39177;BME280;24904;52.208;21.192;2023-03-05T23:25:09;99513.56;;;-1.68;69.57
39177;BME280;24904;52.208;21.192;2023-03-05T23:30:14;99510.89;;;-1.70;69.32
39177;BME280;24904;52.208;21.192;2023-03-05T23:35:21;99508.97;;;-1.76;69.46
39177;BME280;24904;52.208;21.192;2023-03-05T23:40:29;99506.69;;;-1.75;69.42
39177;BME280;24904;52.208;21.192;2023-03-05T23:45:32;99504.75;;;-1.72;69.56
39177;BME280;24904;52.208;21.192;2023-03-05T23:50:37;99501.49;;;-1.74;69.19
39177;BME280;24904;52.208;21.192;2023-03-05T23:55:42;99503.05;;;-1.81;69.39
